Time;durP1;ratioP1;P1;durP2;ratioP2;P2;SDS_P1;SDS_P2;PMS_P1;PMS_P2;Temp;Humidity;BMP_temperature;BMP_pressure;BME280_temperature;BME280_humidity;BME280_pressure;Samples;Min_cycle;Max_cycle;Signal;HPM_P1;HPM_P2
2022/01/25 00:08:21;;;;;;;;;;;;;;;3.37;84.38;102264.78;4980407;28;1269;-84
2022/01/25 00:31:30;;;;;;;;;;;;;;;3.27;84.74;102251.53;5015938;28;1225;-84
2022/01/25 00:33:37;;;;;;;;;;;;;;;3.33;84.55;102241.81;4995018;28;1603;-84
2022/01/25 00:36:04;;;;;;;;;;;;;;;3.34;84.82;102238.91;4979435;28;1202;-84
2022/01/25 00:38:30;;;;;;;;;;;;;;;3.38;84.50;102240.22;4983330;28;1616;-85
2022/01/25 00:40:55;;;;;;;;;;;;;;;3.36;84.36;102236.88;4988254;28;1651;-84
2022/01/25 00:43:22;;;;;;;;;;;;;;;3.37;84.49;102237.72;4983970;28;1544;-84
2022/01/25 00:45:48;;;;;;;;;;;;;;;3.35;84.55;102237.88;4999288;28;1346;-84
2022/01/25 00:48:19;;;;;;;;;;;;;;;3.35;83.98;102237.03;5021125;28;1934;-84
2022/01/25 00:50:45;;;;;;;;;;;;;;;3.30;84.55;102248.47;5019475;28;1548;-85
2022/01/25 00:55:54;;;;;;;;;;;;;;;3.27;84.47;102251.53;5013899;28;1511;-84
2022/01/25 00:58:19;;;;;;;;;;;;;;;3.32;84.61;102240.97;5000224;28;1555;-84
2022/01/25 01:00:44;;;;;;;;;;;;;;;3.34;84.58;102247.03;5007342;28;1555;-83
2022/01/25 01:03:09;;;;;;;;;;;;;;;3.33;84.45;102244.50;4998501;28;1555;-85
2022/01/25 01:05:34;;;;;;;;;;;;;;;3.30;84.38;102237.63;4994151;28;1591;-84
2022/01/25 01:08:00;;;;;;;;;;;;;;;3.27;84.53;102238.00;5020851;28;1894;-85
2022/01/25 01:10:26;;;;;;;;;;;;;;;3.32;84.32;102235.56;5020183;28;1642;-85
2022/01/25 01:15:47;;;;;;;;;;;;;;;3.28;84.20;102234.28;5018032;28;1528;-84
2022/01/25 01:39:56;;;;;;;;;;;;;;;3.29;84.60;102222.41;5012753;28;1516;-84
2022/01/25 01:42:35;;;;;;;;;;;;;;;3.28;84.37;102218.03;5018693;28;993;-84
2022/01/25 01:47:39;;;;;;;;;;;;;;;3.16;84.63;102216.84;5020432;28;1906;-84
2022/01/25 01:50:15;;;;;;;;;;;;;;;3.16;84.57;102218.69;4987515;28;1536;-84
2022/01/25 01:52:40;;;;;;;;;;;;;;;3.16;84.53;102213.28;5021306;28;803;-84
2022/01/25 01:55:06;;;;;;;;;;;;;;;3.20;84.90;102214.59;5003058;28;1174;-85
2022/01/25 01:57:32;;;;;;;;;;;;;;;3.21;84.60;102206.31;4987307;28;1643;-85
2022/01/25 01:59:57;;;;;;;;;;;;;;;3.24;84.76;102215.88;4982914;28;1532;-85
2022/01/25 02:02:22;;;;;;;;;;;;;;;3.24;84.46;102205.91;5002427;28;1610;-85
2022/01/25 02:04:47;;;;;;;;;;;;;;;3.20;84.38;102204.63;5019707;28;1052;-85
2022/01/25 02:07:12;;;;;;;;;;;;;;;3.13;84.59;102198.28;4998772;28;1937;-85
2022/01/25 02:09:38;;;;;;;;;;;;;;;3.16;84.81;102197.06;5001572;28;1587;-84
2022/01/25 02:12:03;;;;;;;;;;;;;;;3.14;84.64;102202.69;5001895;28;986;-84
2022/01/25 02:14:28;;;;;;;;;;;;;;;3.08;85.02;102208.84;5002583;28;1304;-84
2022/01/25 02:17:03;;;;;;;;;;;;;;;3.11;84.70;102203.06;4998757;28;1611;-84
2022/01/25 02:22:26;;;;;;;;;;;;;;;3.08;85.10;102200.72;5001124;28;603;-84
2022/01/25 02:24:51;;;;;;;;;;;;;;;3.14;85.02;102186.44;4983761;28;1296;-84
2022/01/25 02:27:16;;;;;;;;;;;;;;;3.18;85.04;102182.31;4983703;28;1895;-84
2022/01/25 02:29:42;;;;;;;;;;;;;;;3.11;84.69;102180.56;4988546;28;1584;-84
2022/01/25 02:32:08;;;;;;;;;;;;;;;3.06;85.28;102188.44;4984862;28;1548;-84
2022/01/25 02:34:33;;;;;;;;;;;;;;;3.10;85.27;102189.72;5003502;28;1335;-84
2022/01/25 02:37:01;;;;;;;;;;;;;;;3.14;84.96;102188.31;5003933;28;1587;-84
2022/01/25 02:39:26;;;;;;;;;;;;;;;3.20;84.79;102185.69;4999137;28;1540;-84
2022/01/25 02:41:52;;;;;;;;;;;;;;;3.11;84.78;102192.22;5012238;28;1282;-84
2022/01/25 02:44:23;;;;;;;;;;;;;;;3.02;84.60;102183.38;5013156;28;1594;-84
2022/01/25 02:49:16;;;;;;;;;;;;;;;2.99;84.75;102188.31;5020522;28;1358;-83
2022/01/25 02:51:42;;;;;;;;;;;;;;;3.02;84.57;102186.09;5014391;28;921;-83
2022/01/25 02:54:08;;;;;;;;;;;;;;;3.05;84.54;102182.19;4997310;28;1321;-83
2022/01/25 02:56:34;;;;;;;;;;;;;;;3.03;84.39;102182.34;4996898;28;1346;-83
2022/01/25 02:59:00;;;;;;;;;;;;;;;3.05;84.37;102182.19;4996886;28;1476;-83
2022/01/25 03:01:25;;;;;;;;;;;;;;;3.02;84.58;102180.69;4997002;28;1217;-83
2022/01/25 03:03:50;;;;;;;;;;;;;;;3.03;84.37;102182.34;5012742;28;1440;-83
2022/01/25 03:06:17;;;;;;;;;;;;;;;3.11;84.50;102183.28;4977320;28;1359;-83
2022/01/25 03:08:42;;;;;;;;;;;;;;;3.11;84.31;102167.03;4981338;28;1910;-83
2022/01/25 03:11:07;;;;;;;;;;;;;;;3.10;83.77;102168.91;5013584;28;1609;-83
2022/01/25 03:13:44;;;;;;;;;;;;;;;3.13;84.19;102171.25;4996867;28;1493;-82
2022/01/25 03:16:18;;;;;;;;;;;;;;;3.08;83.73;102168.25;5015100;28;847;-82
2022/01/25 03:18:46;;;;;;;;;;;;;;;3.04;83.88;102167.81;5014282;28;1336;-82
2022/01/25 03:21:22;;;;;;;;;;;;;;;2.97;84.03;102166.06;4996421;28;1229;-83
2022/01/25 03:23:48;;;;;;;;;;;;;;;3.02;84.17;102166.31;4996843;28;1803;-83
2022/01/25 03:26:14;;;;;;;;;;;;;;;3.03;83.95;102159.88;4996716;28;1316;-82
2022/01/25 03:28:39;;;;;;;;;;;;;;;3.01;83.83;102162.78;4996298;28;1898;-83
2022/01/25 03:31:05;;;;;;;;;;;;;;;2.98;84.21;102162.31;4996360;28;1329;-83
2022/01/25 03:33:30;;;;;;;;;;;;;;;2.95;84.17;102162.69;4996217;28;1363;-83
2022/01/25 03:35:55;;;;;;;;;;;;;;;2.99;84.24;102155.88;5014273;28;989;-83
2022/01/25 03:38:21;;;;;;;;;;;;;;;3.03;84.65;102159.88;4996233;28;1768;-83
2022/01/25 03:40:46;;;;;;;;;;;;;;;3.03;84.33;102157.19;5013986;28;1839;-83
2022/01/25 03:43:13;;;;;;;;;;;;;;;3.08;84.57;102160.13;4996298;28;1552;-83
2022/01/25 03:45:41;;;;;;;;;;;;;;;3.11;84.46;102151.66;4990354;28;1595;-83
2022/01/25 03:50:34;;;;;;;;;;;;;;;3.09;84.77;102161.81;5005511;28;1650;-83
2022/01/25 03:53:00;;;;;;;;;;;;;;;3.07;84.64;102161.16;4977154;28;1182;-83
2022/01/25 03:55:25;;;;;;;;;;;;;;;3.08;84.42;102162.84;4977501;28;1667;-83
2022/01/25 03:57:50;;;;;;;;;;;;;;;3.12;84.32;102158.75;4981305;28;1524;-83
2022/01/25 04:00:15;;;;;;;;;;;;;;;3.10;84.63;102165.34;4996362;28;1273;-83
2022/01/25 04:02:49;;;;;;;;;;;;;;;3.09;84.31;102148.28;4984931;28;1564;-83
2022/01/25 04:05:21;;;;;;;;;;;;;;;2.99;84.60;102150.47;4976864;28;1430;-83
2022/01/25 04:07:50;;;;;;;;;;;;;;;3.04;84.56;102156.16;4977001;28;1946;-83
2022/01/25 04:10:17;;;;;;;;;;;;;;;3.08;84.92;102151.19;4976867;28;1245;-83
2022/01/25 04:12:42;;;;;;;;;;;;;;;3.04;84.56;102159.69;4976818;28;1271;-83
2022/01/25 04:15:08;;;;;;;;;;;;;;;2.94;85.00;102161.03;4992646;28;1603;-83
2022/01/25 04:17:34;;;;;;;;;;;;;;;2.89;84.61;102160.75;5013044;28;1496;-83
2022/01/25 04:25:18;;;;;;;;;;;;;;;2.98;85.40;102151.47;5012855;28;1571;-82
2022/01/25 04:27:43;;;;;;;;;;;;;;;3.00;84.94;102152.97;4981202;28;1947;-83
2022/01/25 04:30:08;;;;;;;;;;;;;;;3.02;85.19;102153.63;4996606;28;1537;-83
2022/01/25 04:32:42;;;;;;;;;;;;;;;3.02;85.36;102150.09;4998393;28;1543;-83
2022/01/25 04:35:12;;;;;;;;;;;;;;;2.95;85.32;102150.00;4998564;28;1488;-82
2022/01/25 04:48:58;;;;;;;;;;;;;;;2.95;85.10;102141.91;4998587;28;1902;-83
2022/01/25 04:51:46;;;;;;;;;;;;;;;3.01;85.07;102134.88;4997755;28;1044;-83
2022/01/25 04:59:16;;;;;;;;;;;;;;;3.04;85.16;102138.06;4998462;28;1273;-83
2022/01/25 05:01:43;;;;;;;;;;;;;;;2.99;84.86;102129.66;4980259;28;1265;-83
2022/01/25 05:04:17;;;;;;;;;;;;;;;2.98;85.26;102130.69;4995353;28;1276;-84
2022/01/25 05:06:45;;;;;;;;;;;;;;;3.03;85.07;102139.09;5000196;28;1382;-83
2022/01/25 05:09:13;;;;;;;;;;;;;;;2.93;85.57;102137.69;5000091;28;1898;-83
2022/01/25 05:11:43;;;;;;;;;;;;;;;2.88;85.53;102134.75;5000015;28;1579;-83
2022/01/25 05:14:20;;;;;;;;;;;;;;;2.98;85.38;102138.78;4989679;28;1627;-82
2022/01/25 05:16:58;;;;;;;;;;;;;;;3.06;85.34;102139.72;4992601;28;1564;-82
2022/01/25 05:22:17;;;;;;;;;;;;;;;2.74;85.35;102089.63;5014561;28;1555;-83
2022/01/25 05:24:44;;;;;;;;;;;;;;;2.97;85.39;102129.03;5017520;28;850;-83
2022/01/25 05:27:11;;;;;;;;;;;;;;;3.01;85.70;102134.88;4987636;28;1886;-83
2022/01/25 05:29:36;;;;;;;;;;;;;;;3.04;85.56;102139.91;5015631;28;1575;-83
2022/01/25 05:32:02;;;;;;;;;;;;;;;3.01;85.52;102138.44;5017245;28;1693;-83
2022/01/25 05:34:28;;;;;;;;;;;;;;;2.96;85.08;102137.34;4999872;28;1181;-83
2022/01/25 05:36:53;;;;;;;;;;;;;;;2.91;85.40;102145.16;4984362;28;1552;-83
2022/01/25 05:39:29;;;;;;;;;;;;;;;2.86;85.90;102140.34;4980656;28;1281;-83
2022/01/25 05:41:57;;;;;;;;;;;;;;;2.82;85.83;102130.06;4981281;28;1220;-84
2022/01/25 05:44:36;;;;;;;;;;;;;;;2.81;86.18;102134.63;4984374;28;1473;-84
2022/01/25 05:47:05;;;;;;;;;;;;;;;2.82;85.96;102130.06;4996655;28;1894;-83
2022/01/25 05:49:32;;;;;;;;;;;;;;;2.84;86.19;102134.28;4999570;28;1437;-83
2022/01/25 05:51:57;;;;;;;;;;;;;;;2.93;86.24;102135.00;4999695;28;1583;-83
2022/01/25 05:54:22;;;;;;;;;;;;;;;2.93;86.14;102135.00;4989475;28;1591;-83
2022/01/25 05:56:47;;;;;;;;;;;;;;;2.95;85.94;102146.47;5013225;28;1319;-83
2022/01/25 05:59:12;;;;;;;;;;;;;;;2.89;86.02;102144.53;4998668;28;1333;-84
2022/01/25 06:01:38;;;;;;;;;;;;;;;2.86;86.27;102143.03;4994936;28;1623;-84
2022/01/25 06:04:03;;;;;;;;;;;;;;;2.83;86.14;102146.09;4999383;28;1563;-83
2022/01/25 06:06:29;;;;;;;;;;;;;;;2.93;86.23;102145.81;5019177;28;827;-84
2022/01/25 06:08:55;;;;;;;;;;;;;;;2.96;85.87;102143.59;5001987;28;1973;-84
2022/01/25 06:11:20;;;;;;;;;;;;;;;2.97;85.99;102139.00;5020368;28;835;-83
2022/01/25 06:13:46;;;;;;;;;;;;;;;2.99;86.20;102140.47;4992498;28;1599;-83
2022/01/25 06:16:11;;;;;;;;;;;;;;;2.91;86.29;102139.75;4998522;28;1627;-83
2022/01/25 06:18:36;;;;;;;;;;;;;;;2.89;86.07;102139.94;5000071;28;958;-83
2022/01/25 06:21:01;;;;;;;;;;;;;;;2.98;86.11;102138.78;5019535;28;1177;-83
2022/01/25 06:23:26;;;;;;;;;;;;;;;3.03;85.85;102140.94;5002240;28;1186;-84
2022/01/25 06:25:52;;;;;;;;;;;;;;;3.01;85.91;102140.28;5019537;28;998;-85
2022/01/25 06:28:18;;;;;;;;;;;;;;;2.96;86.39;102140.03;5000955;28;1942;-83
2022/01/25 06:30:44;;;;;;;;;;;;;;;2.94;86.52;102137.53;5019181;28;1225;-83
2022/01/25 06:33:09;;;;;;;;;;;;;;;2.96;86.38;102140.03;5018734;28;895;-83
2022/01/25 06:35:35;;;;;;;;;;;;;;;3.02;86.09;102136.56;5001130;28;1271;-83
2022/01/25 06:38:00;;;;;;;;;;;;;;;3.06;86.30;102142.44;5020250;28;858;-82
2022/01/25 06:40:26;;;;;;;;;;;;;;;2.96;86.54;102142.75;5001891;28;1335;-83
2022/01/25 06:42:51;;;;;;;;;;;;;;;2.97;86.45;102149.84;5019606;28;831;-83
2022/01/25 06:45:19;;;;;;;;;;;;;;;2.98;86.32;102146.06;5020647;28;803;-83
2022/01/25 06:47:45;;;;;;;;;;;;;;;2.97;86.35;102150.66;5003014;28;1910;-83
2022/01/25 06:50:11;;;;;;;;;;;;;;;2.92;86.27;102146.84;5020994;28;1209;-84
2022/01/25 06:52:40;;;;;;;;;;;;;;;2.95;86.66;102151.88;5021673;28;1225;-84
2022/01/25 06:55:06;;;;;;;;;;;;;;;2.92;86.51;102155.78;5004533;28;1124;-84
2022/01/25 06:57:31;;;;;;;;;;;;;;;2.95;86.41;102151.88;5005308;28;1325;-84
2022/01/25 06:59:56;;;;;;;;;;;;;;;2.98;86.34;102156.88;5011450;28;1225;-84
2022/01/25 07:02:21;;;;;;;;;;;;;;;2.92;86.50;102157.66;5020667;28;1017;-83
2022/01/25 07:04:46;;;;;;;;;;;;;;;2.95;86.28;102152.72;5037810;28;1111;-84
2022/01/25 07:07:11;;;;;;;;;;;;;;;2.91;86.28;102164.94;5006737;28;1887;-83
2022/01/25 07:09:36;;;;;;;;;;;;;;;2.85;86.85;102162.16;4998129;28;1335;-83
2022/01/25 07:12:02;;;;;;;;;;;;;;;2.88;86.82;102172.59;4998168;28;1224;-84
2022/01/25 07:14:28;;;;;;;;;;;;;;;2.91;86.63;102166.78;5016260;28;891;-83
2022/01/25 07:16:54;;;;;;;;;;;;;;;2.89;86.58;102180.50;4997747;28;1010;-83
2022/01/25 07:19:20;;;;;;;;;;;;;;;2.84;86.18;102172.13;5015425;28;1201;-84
2022/01/25 07:21:45;;;;;;;;;;;;;;;2.84;86.07;102174.84;4997776;28;1355;-83
2022/01/25 07:24:10;;;;;;;;;;;;;;;2.88;85.98;102172.59;4998156;28;1213;-83
2022/01/25 07:26:35;;;;;;;;;;;;;;;2.86;85.51;102169.25;4998112;28;1058;-83
2022/01/25 07:29:00;;;;;;;;;;;;;;;2.84;85.72;102165.88;5015565;28;1902;-83
2022/01/25 07:31:25;;;;;;;;;;;;;;;2.91;85.83;102166.78;5015993;28;899;-83
2022/01/25 07:33:51;;;;;;;;;;;;;;;2.86;85.67;102169.25;4997973;28;1406;-83
2022/01/25 07:36:16;;;;;;;;;;;;;;;2.83;85.42;102175.84;4999193;28;1208;-83
2022/01/25 07:38:41;;;;;;;;;;;;;;;2.88;85.62;102168.03;4998625;28;1235;-83
2022/01/25 07:41:06;;;;;;;;;;;;;;;2.96;85.90;102172.50;4998999;28;1303;-83
2022/01/25 07:43:31;;;;;;;;;;;;;;;2.87;86.21;102168.22;4998866;28;1288;-84
2022/01/25 07:45:58;;;;;;;;;;;;;;;2.90;86.20;102181.34;5017308;28;831;-83
2022/01/25 07:48:24;;;;;;;;;;;;;;;2.96;86.04;102172.50;4999168;28;1898;-83
2022/01/25 07:50:50;;;;;;;;;;;;;;;2.95;86.19;102179.78;5013711;28;1502;-83
2022/01/25 07:53:15;;;;;;;;;;;;;;;2.95;86.37;102184.34;5017415;28;847;-83
2022/01/25 07:55:40;;;;;;;;;;;;;;;2.98;86.65;102175.81;5000953;28;1359;-84
2022/01/25 07:58:05;;;;;;;;;;;;;;;3.03;86.10;102173.41;5021460;28;998;-84
2022/01/25 08:00:30;;;;;;;;;;;;;;;3.06;86.35;102167.63;5003518;28;1347;-84
2022/01/25 08:02:56;;;;;;;;;;;;;;;3.06;86.10;102169.50;5021760;28;1062;-84
2022/01/25 08:05:23;;;;;;;;;;;;;;;3.03;86.50;102176.94;5003878;28;1340;-84
2022/01/25 08:07:48;;;;;;;;;;;;;;;3.03;85.81;102171.53;5003938;28;1960;-83
2022/01/25 08:10:13;;;;;;;;;;;;;;;3.02;85.99;102169.84;5021650;28;1201;-83
2022/01/25 08:12:39;;;;;;;;;;;;;;;3.03;85.68;102168.84;5003684;28;1372;-84
2022/01/25 08:15:08;;;;;;;;;;;;;;;3.05;85.94;102174.06;5004686;28;1396;-83
2022/01/25 08:17:33;;;;;;;;;;;;;;;3.08;85.75;102168.25;5004718;28;1353;-84
2022/01/25 08:19:58;;;;;;;;;;;;;;;3.08;85.76;102176.38;5004151;28;1309;-84
2022/01/25 08:22:24;;;;;;;;;;;;;;;3.11;85.95;102177.88;5022272;28;886;-83
2022/01/25 08:24:49;;;;;;;;;;;;;;;3.11;85.75;102183.28;5004952;28;1272;-84
2022/01/25 08:27:17;;;;;;;;;;;;;;;3.13;85.92;102179.34;5004914;28;1874;-84
2022/01/25 08:29:42;;;;;;;;;;;;;;;3.10;85.50;102179.72;5000656;28;1528;-84
2022/01/25 08:32:08;;;;;;;;;;;;;;;3.10;85.33;102181.59;4994474;28;1297;-83
2022/01/25 08:34:33;;;;;;;;;;;;;;;3.01;84.93;102173.59;4999482;28;1365;-84
2022/01/25 08:36:58;;;;;;;;;;;;;;;3.03;84.65;102174.25;4999767;28;1719;-84
2022/01/25 08:39:26;;;;;;;;;;;;;;;3.09;84.85;102180.75;5002867;28;1551;-83
2022/01/25 08:41:51;;;;;;;;;;;;;;;3.12;84.73;102179.53;4999616;28;1643;-83
2022/01/25 08:44:16;;;;;;;;;;;;;;;3.10;84.66;102182.44;4999807;28;1293;-83
2022/01/25 08:46:42;;;;;;;;;;;;;;;3.07;84.72;102180.09;4982421;28;1343;-83
2022/01/25 08:49:07;;;;;;;;;;;;;;;3.04;85.18;102181.34;4994027;28;1932;-83
2022/01/25 08:51:32;;;;;;;;;;;;;;;3.09;84.52;102179.91;4997968;28;1299;-84
2022/01/25 08:53:59;;;;;;;;;;;;;;;3.11;84.10;102181.41;5004288;28;1492;-83
2022/01/25 08:56:24;;;;;;;;;;;;;;;3.09;84.38;102180.75;5004602;28;1311;-83
2022/01/25 08:58:49;;;;;;;;;;;;;;;3.10;84.10;102185.13;5021000;28;1575;-85
2022/01/25 09:01:14;;;;;;;;;;;;;;;3.12;84.07;102174.97;4999183;28;1687;-84
2022/01/25 09:03:39;;;;;;;;;;;;;;;3.15;83.81;102184.59;5004565;28;1333;-85
2022/01/25 09:06:05;;;;;;;;;;;;;;;3.16;84.22;102181.66;5002987;28;1523;-84
2022/01/25 09:08:30;;;;;;;;;;;;;;;3.16;83.79;102178.13;5004567;28;1894;-83
2022/01/25 09:11:01;;;;;;;;;;;;;;;3.16;83.84;102181.66;4990747;28;1565;-85
2022/01/25 09:13:27;;;;;;;;;;;;;;;3.13;83.60;102186.63;4993546;28;1662;-84
2022/01/25 09:15:52;;;;;;;;;;;;;;;3.12;84.00;102190.38;5016497;28;1560;-83
2022/01/25 09:18:17;;;;;;;;;;;;;;;3.16;83.71;102194.34;5017683;28;1686;-82
2022/01/25 09:20:42;;;;;;;;;;;;;;;3.14;83.68;102186.44;4997359;28;1657;-83
2022/01/25 09:23:08;;;;;;;;;;;;;;;3.10;83.80;102190.56;4999066;28;1230;-83
2022/01/25 09:25:33;;;;;;;;;;;;;;;3.10;83.32;102187.00;5000170;28;1740;-83
2022/01/25 09:27:59;;;;;;;;;;;;;;;3.10;83.28;102192.41;5000206;28;1965;-82
2022/01/25 09:30:25;;;;;;;;;;;;;;;3.16;83.08;102187.06;4999784;28;1667;-83
2022/01/25 09:32:50;;;;;;;;;;;;;;;3.21;83.01;102187.34;5016921;28;1465;-83
2022/01/25 09:35:15;;;;;;;;;;;;;;;3.19;82.92;102183.16;4999279;28;1700;-83
2022/01/25 09:37:40;;;;;;;;;;;;;;;3.18;82.60;102190.44;5018226;28;933;-83
2022/01/25 09:40:06;;;;;;;;;;;;;;;3.22;82.59;102185.50;4999955;28;1367;-83
2022/01/25 09:42:31;;;;;;;;;;;;;;;3.23;82.84;102187.97;5017092;28;1549;-83
2022/01/25 09:44:57;;;;;;;;;;;;;;;3.24;82.90;102192.38;5017737;28;1180;-83
2022/01/25 09:47:22;;;;;;;;;;;;;;;3.27;82.22;102191.16;4995903;28;1941;-84
2022/01/25 09:49:47;;;;;;;;;;;;;;;3.23;82.46;102187.97;4998198;28;1374;-83
2022/01/25 09:52:12;;;;;;;;;;;;;;;3.17;82.17;102186.06;4980981;28;928;-83
2022/01/25 09:54:38;;;;;;;;;;;;;;;3.16;81.91;102197.91;5016512;28;1367;-83
2022/01/25 09:57:04;;;;;;;;;;;;;;;3.22;82.13;102197.16;5000584;28;1073;-83
2022/01/25 09:59:29;;;;;;;;;;;;;;;3.25;81.95;102199.47;5000028;28;1367;-83
2022/01/25 10:01:55;;;;;;;;;;;;;;;3.25;81.40;102202.16;4999189;28;1351;-83
2022/01/25 11:47:37;;;;;;;;;;;;;;;3.28;81.47;102190.13;5012397;28;1886;-91
2022/01/25 11:50:05;;;;;;;;;;;;;;;3.26;81.13;102187.63;4996932;28;1311;-90
2022/01/25 11:52:31;;;;;;;;;;;;;;;3.24;81.24;102184.25;4996614;28;1329;-91
2022/01/25 11:55:28;;;;;;;;;;;;;;;3.20;81.50;102182.13;4979406;28;1222;-91
2022/01/25 11:57:58;;;;;;;;;;;;;;;3.23;81.66;102182.56;4945118;28;1254;-91
2022/01/25 12:00:35;;;;;;;;;;;;;;;3.20;81.36;102179.44;4977017;28;1296;-91
2022/01/25 12:03:01;;;;;;;;;;;;;;;3.15;81.27;102174.56;4976890;28;1341;-91
2022/01/25 12:05:27;;;;;;;;;;;;;;;3.12;81.32;102174.97;4976987;28;1304;-90
2022/01/25 12:08:05;;;;;;;;;;;;;;;3.13;81.05;102168.53;4977363;28;1894;-91
2022/01/25 12:10:30;;;;;;;;;;;;;;;3.10;80.90;102170.78;4976956;28;1304;-90
2022/01/25 12:13:34;;;;;;;;;;;;;;;3.13;81.06;102163.13;4977158;28;1209;-91
2022/01/25 12:16:20;;;;;;;;;;;;;;;3.11;81.21;102159.75;4918446;29;1178;-90
2022/01/25 12:18:57;;;;;;;;;;;;;;;3.11;81.28;102157.06;4918787;29;1324;-90
2022/01/25 12:21:41;;;;;;;;;;;;;;;3.11;81.10;102154.34;4958619;28;1429;-91
2022/01/25 12:24:20;;;;;;;;;;;;;;;3.07;80.93;102154.91;4977782;28;1316;-90
2022/01/25 12:26:58;;;;;;;;;;;;;;;3.07;81.00;102154.91;4977539;28;1217;-91
2022/01/25 12:29:30;;;;;;;;;;;;;;;3.04;81.19;102146.16;4976726;28;1952;-91
2022/01/25 12:32:14;;;;;;;;;;;;;;;3.08;81.35;102145.78;4976914;28;1265;-91
2022/01/25 12:34:55;;;;;;;;;;;;;;;3.06;81.09;102142.44;4976736;28;1335;-90
2022/01/25 12:37:39;;;;;;;;;;;;;;;3.03;81.05;102144.50;4976814;28;1158;-91
2022/01/25 12:40:24;;;;;;;;;;;;;;;3.08;81.02;102140.34;4976675;28;1312;-92
2022/01/25 12:42:49;;;;;;;;;;;;;;;3.04;81.08;102134.50;4979630;28;1371;-91
2022/01/25 12:45:18;;;;;;;;;;;;;;;3.10;81.39;102136.44;4980317;28;1312;-91
2022/01/25 12:47:51;;;;;;;;;;;;;;;3.03;81.32;102130.97;4980480;28;1899;-91
2022/01/25 12:50:16;;;;;;;;;;;;;;;3.06;81.17;102127.06;4980152;28;1229;-91
2022/01/25 12:52:41;;;;;;;;;;;;;;;3.10;81.09;102128.31;4980166;28;1276;-91
2022/01/25 12:55:07;;;;;;;;;;;;;;;3.10;80.79;102122.91;4980459;28;1347;-91
2022/01/25 12:57:32;;;;;;;;;;;;;;;3.11;80.58;102123.75;4980110;28;1205;-91
2022/01/25 12:59:58;;;;;;;;;;;;;;;3.11;80.35;102130.00;4980114;28;1359;-91
2022/01/25 13:02:24;;;;;;;;;;;;;;;3.04;80.79;102129.09;4979899;28;1335;-91
2022/01/25 13:04:50;;;;;;;;;;;;;;;3.03;81.04;102124.72;4980006;28;1280;-91
2022/01/25 13:07:15;;;;;;;;;;;;;;;3.01;80.81;102118.66;4980067;28;1951;-91
2022/01/25 13:09:44;;;;;;;;;;;;;;;2.98;80.75;102119.03;4979758;28;1321;-91
2022/01/25 13:12:15;;;;;;;;;;;;;;;2.98;80.64;102116.31;4997411;28;831;-91
2022/01/25 13:14:50;;;;;;;;;;;;;;;2.94;80.10;102112.34;4979672;28;1233;-91
2022/01/25 13:17:20;;;;;;;;;;;;;;;2.88;80.27;102107.69;4979829;28;1268;-91
2022/01/25 13:19:50;;;;;;;;;;;;;;;2.94;80.48;102102.34;4979748;28;1174;-92
2022/01/25 13:22:18;;;;;;;;;;;;;;;2.94;80.19;102099.66;4979913;28;1273;-91
2022/01/25 13:25:01;;;;;;;;;;;;;;;2.92;80.25;102096.28;4979479;28;1197;-91
2022/01/25 13:27:30;;;;;;;;;;;;;;;2.98;80.31;102095.53;4979298;28;1890;-91
2022/01/25 13:32:41;;;;;;;;;;;;;;;3.06;80.08;102093.75;4997236;28;677;-91
2022/01/25 13:35:16;;;;;;;;;;;;;;;3.04;80.21;102100.19;4979330;28;1217;-90
2022/01/25 13:37:42;;;;;;;;;;;;;;;3.02;79.65;102090.56;4979409;28;1425;-91
2022/01/25 13:40:07;;;;;;;;;;;;;;;3.01;79.75;102092.44;4979192;28;1206;-91
2022/01/25 13:42:56;;;;;;;;;;;;;;;3.06;79.85;102089.19;4979268;28;1328;-91
2022/01/25 13:48:10;;;;;;;;;;;;;;;3.06;79.86;102094.59;4997968;28;1949;-91
2022/01/25 13:50:37;;;;;;;;;;;;;;;3.08;80.28;102086.25;4980028;28;1371;-90
2022/01/25 13:53:03;;;;;;;;;;;;;;;3.08;79.90;102089.78;4978047;28;1222;-91
2022/01/25 13:55:33;;;;;;;;;;;;;;;3.04;79.92;102096.63;4978979;28;1266;-91
2022/01/25 13:57:59;;;;;;;;;;;;;;;3.03;79.66;102089.56;4979072;28;1277;-91
2022/01/25 14:00:25;;;;;;;;;;;;;;;3.11;79.85;102088.59;4978998;28;1284;-90
2022/01/25 14:02:54;;;;;;;;;;;;;;;3.18;79.46;102089.47;4981219;28;1202;-90
2022/01/25 14:05:20;;;;;;;;;;;;;;;3.13;79.40;102084.66;4980710;28;1244;-91
2022/01/25 14:07:47;;;;;;;;;;;;;;;3.12;79.29;102087.56;4981862;28;1930;-90
2022/01/25 14:10:18;;;;;;;;;;;;;;;3.12;79.05;102088.41;4978986;28;1196;-90
2022/01/25 14:23:44;;;;;;;;;;;;;;;3.06;78.90;102083.75;4996541;28;1532;-91
2022/01/25 14:26:10;;;;;;;;;;;;;;;3.04;78.62;102091.22;4979001;28;1545;-91
2022/01/25 14:28:41;;;;;;;;;;;;;;;2.99;79.08;102093.66;4978845;28;1890;-91
2022/01/25 14:31:16;;;;;;;;;;;;;;;2.98;79.05;102078.44;4996571;28;914;-91
2022/01/25 14:33:48;;;;;;;;;;;;;;;3.05;79.08;102092.91;4978746;28;1310;-90
2022/01/25 14:36:15;;;;;;;;;;;;;;;3.09;79.01;102091.47;4978452;28;1305;-90
2022/01/25 14:38:41;;;;;;;;;;;;;;;3.11;79.08;102089.44;4978462;28;1238;-91
2022/01/25 14:41:12;;;;;;;;;;;;;;;3.10;79.13;102101.28;4978347;28;1190;-91
2022/01/25 14:43:48;;;;;;;;;;;;;;;3.05;78.89;102092.91;4978430;28;1372;-91
2022/01/25 14:46:17;;;;;;;;;;;;;;;3.03;78.83;102094.97;4978234;28;1387;-91
2022/01/25 14:48:44;;;;;;;;;;;;;;;3.02;79.17;102090.56;4978430;28;1898;-92
2022/01/25 14:51:12;;;;;;;;;;;;;;;3.07;79.21;102088.13;4978414;28;1264;-91
2022/01/25 14:53:40;;;;;;;;;;;;;;;3.08;78.87;102097.91;4996355;28;1288;-92
2022/01/25 14:56:07;;;;;;;;;;;;;;;3.04;79.02;102096.63;4978461;28;1444;-91
2022/01/25 15:01:21;;;;;;;;;;;;;;;2.99;79.01;102096.34;4968132;28;985;-92
2022/01/25 15:14:08;;;;;;;;;;;;;;;2.99;79.42;102109.88;5003223;28;1326;-90
2022/01/25 15:16:33;;;;;;;;;;;;;;;3.01;79.50;102107.84;4980932;28;1326;-91
2022/01/25 15:18:58;;;;;;;;;;;;;;;3.00;79.16;102107.00;4994926;28;965;-90
2022/01/25 15:21:25;;;;;;;;;;;;;;;2.99;79.29;102109.88;4977041;28;1301;-90
2022/01/25 15:23:51;;;;;;;;;;;;;;;3.02;79.66;102104.94;4977502;28;1289;-90
2022/01/25 15:26:18;;;;;;;;;;;;;;;3.06;79.54;102105.41;4977706;28;1227;-92
2022/01/25 15:28:47;;;;;;;;;;;;;;;3.06;79.46;102101.88;4978186;28;1922;-93
2022/01/25 15:31:13;;;;;;;;;;;;;;;3.06;79.36;102100.00;4977038;28;1671;-90
2022/01/25 15:33:39;;;;;;;;;;;;;;;2.96;79.52;102100.31;4977439;28;1371;-89
2022/01/25 15:36:15;;;;;;;;;;;;;;;3.01;79.94;102097.00;4977377;28;1324;-90
2022/01/25 15:38:41;;;;;;;;;;;;;;;3.03;79.35;102100.38;4977574;28;1516;-91
2022/01/25 15:41:10;;;;;;;;;;;;;;;2.99;79.71;102090.94;4996001;28;1421;-91
2022/01/25 15:44:04;;;;;;;;;;;;;;;2.96;80.02;102094.91;4978710;28;1381;-91
2022/01/25 15:46:44;;;;;;;;;;;;;;;2.95;79.72;102087.81;4996204;28;1210;-92
2022/01/25 15:49:09;;;;;;;;;;;;;;;2.99;79.89;102094.50;4977961;28;1890;-91
2022/01/25 15:51:34;;;;;;;;;;;;;;;2.95;79.72;102092.38;4977382;28;1344;-91
2022/01/25 15:54:00;;;;;;;;;;;;;;;2.99;79.59;102088.25;4977696;28;1299;-92
2022/01/25 15:56:26;;;;;;;;;;;;;;;3.02;79.68;102090.56;4978520;28;1213;-91
2022/01/25 15:58:51;;;;;;;;;;;;;;;3.04;79.73;102085.81;4979035;28;1332;-91
2022/01/25 16:01:16;;;;;;;;;;;;;;;2.97;79.90;102093.03;4977225;28;1710;-89
2022/01/25 16:03:42;;;;;;;;;;;;;;;2.94;80.19;102093.41;4995044;23;2190;-86
2022/01/25 16:06:08;;;;;;;;;;;;;;;2.88;80.15;102091.47;5004840;28;1623;-83
2022/01/25 16:08:33;;;;;;;;;;;;;;;2.86;80.31;102091.66;4999043;28;1918;-86
2022/01/25 16:10:59;;;;;;;;;;;;;;;2.91;79.77;102091.06;5004831;28;1361;-86
2022/01/25 16:13:25;;;;;;;;;;;;;;;2.93;79.94;102097.13;4998399;28;1236;-84
2022/01/25 16:15:51;;;;;;;;;;;;;;;2.87;80.20;102093.34;4965104;28;1541;-85
2022/01/25 16:18:16;;;;;;;;;;;;;;;2.91;79.69;102096.47;4963021;28;1161;-83
2022/01/25 16:20:42;;;;;;;;;;;;;;;2.87;79.99;102097.91;4963568;28;1377;-85
2022/01/25 16:23:07;;;;;;;;;;;;;;;2.89;80.33;102095.84;4978888;28;1687;-84
2022/01/25 16:25:32;;;;;;;;;;;;;;;2.86;80.32;102104.34;4988503;28;1398;-85
2022/01/25 16:27:57;;;;;;;;;;;;;;;2.83;80.51;102105.56;4989963;28;1961;-82
2022/01/25 16:30:23;;;;;;;;;;;;;;;2.88;80.44;102108.53;4998753;28;1363;-87
2022/01/25 16:32:50;;;;;;;;;;;;;;;2.95;80.21;102101.34;4976299;28;1852;-86
2022/01/25 16:35:16;;;;;;;;;;;;;;;2.92;79.99;102108.97;4981220;28;1278;-86
2022/01/25 16:37:42;;;;;;;;;;;;;;;2.90;80.46;102108.31;4995115;28;1540;-87
2022/01/25 16:40:07;;;;;;;;;;;;;;;2.92;80.25;102111.69;4980458;28;1316;-87
2022/01/25 16:42:32;;;;;;;;;;;;;;;2.86;80.53;102099.78;4981829;28;1226;-86